sensor_id;sensor_type;location;lat;lon;timestamp;pressure;altitude;pressure_sealevel;temperature;humidity
56514;BME280;62152;52.078;8.414;2023-04-26T00:03:40;100275.84;;;18.90;48.43
56514;BME280;62152;52.078;8.414;2023-04-26T00:07:43;100277.81;;;18.90;48.92
56514;BME280;62152;52.078;8.414;2023-04-26T00:11:44;100279.41;;;18.91;48.40
56514;BME280;62152;52.078;8.414;2023-04-26T00:15:44;100280.56;;;18.90;48.32
56514;BME280;62152;52.078;8.414;2023-04-26T00:19:45;100281.72;;;18.89;49.04
56514;BME280;62152;52.078;8.414;2023-04-26T00:23:47;100276.22;;;18.89;48.91
56514;BME280;62152;52.078;8.414;2023-04-26T00:27:48;100278.97;;;18.89;49.16
56514;BME280;62152;52.078;8.414;2023-04-26T00:31:49;100280.94;;;18.88;48.57
56514;BME280;62152;52.078;8.414;2023-04-26T00:35:50;100274.66;;;18.88;48.39
56514;BME280;62152;52.078;8.414;2023-04-26T00:39:52;100288.38;;;18.88;48.91
56514;BME280;62152;52.078;8.414;2023-04-26T00:43:53;100277.41;;;18.88;49.07
56514;BME280;62152;52.078;8.414;2023-04-26T00:47:54;100275.78;;;18.86;48.48
56514;BME280;62152;52.078;8.414;2023-04-26T00:51:55;100275.78;;;18.86;48.82
56514;BME280;62152;52.078;8.414;2023-04-26T00:55:59;100273.03;;;18.86;48.93
56514;BME280;62152;52.078;8.414;2023-04-26T01:00:00;100274.19;;;18.85;48.95
56514;BME280;62152;52.078;8.414;2023-04-26T01:04:01;100273.03;;;18.86;49.02
56514;BME280;62152;52.078;8.414;2023-04-26T01:08:03;100272.63;;;18.84;48.55
56514;BME280;62152;52.078;8.414;2023-04-26T01:12:08;100275.38;;;18.84;48.81
56514;BME280;62152;52.078;8.414;2023-04-26T01:16:09;100273.78;;;18.83;49.06
56514;BME280;62152;52.078;8.414;2023-04-26T01:20:13;100280.06;;;18.84;49.20
56514;BME280;62152;52.078;8.414;2023-04-26T01:24:15;100288.31;;;18.84;49.03
56514;BME280;62152;52.078;8.414;2023-04-26T01:28:16;100289.84;;;18.81;48.42
56514;BME280;62152;52.078;8.414;2023-04-26T01:32:17;100282.41;;;18.82;48.63
56514;BME280;62152;52.078;8.414;2023-04-26T01:36:18;100281.63;;;18.81;48.75
56514;BME280;62152;52.078;8.414;2023-04-26T01:40:20;100282.41;;;18.82;48.71
56514;BME280;62152;52.078;8.414;2023-04-26T01:44:21;100280.44;;;18.82;48.41
56514;BME280;62152;52.078;8.414;2023-04-26T01:48:21;100278.88;;;18.81;48.69
56514;BME280;62152;52.078;8.414;2023-04-26T01:52:22;100276.13;;;18.81;48.59
56514;BME280;62152;52.078;8.414;2023-04-26T01:56:24;100280.03;;;18.80;48.94
56514;BME280;62152;52.078;8.414;2023-04-26T02:00:28;100277.28;;;18.80;48.58
56514;BME280;62152;52.078;8.414;2023-04-26T02:04:29;100270.19;;;18.79;48.82
56514;BME280;62152;52.078;8.414;2023-04-26T02:08:30;100272.94;;;18.79;48.74
56514;BME280;62152;52.078;8.414;2023-04-26T02:12:32;100274.88;;;18.79;48.68
56514;BME280;62152;52.078;8.414;2023-04-26T02:16:33;100272.94;;;18.79;48.96
56514;BME280;62152;52.078;8.414;2023-04-26T02:20:34;100283.13;;;18.79;48.69
56514;BME280;62152;52.078;8.414;2023-04-26T02:24:34;100276.84;;;18.78;48.50
56514;BME280;62152;52.078;8.414;2023-04-26T02:28:37;100278.78;;;18.78;48.46
56514;BME280;62152;52.078;8.414;2023-04-26T02:32:38;100279.16;;;18.76;48.70
56514;BME280;62152;52.078;8.414;2023-04-26T02:36:39;100283.50;;;18.77;48.56
56514;BME280;62152;52.078;8.414;2023-04-26T02:40:40;100281.91;;;18.76;49.13
56514;BME280;62152;52.078;8.414;2023-04-26T02:44:43;100288.22;;;18.77;48.70
56514;BME280;62152;52.078;8.414;2023-04-26T02:48:44;100289.38;;;18.76;48.80
56514;BME280;62152;52.078;8.414;2023-04-26T02:52:45;100289.00;;;18.77;49.04
56514;BME280;62152;52.078;8.414;2023-04-26T02:56:45;100290.16;;;18.76;48.50
56514;BME280;62152;52.078;8.414;2023-04-26T03:00:48;100294.06;;;18.75;49.00
56514;BME280;62152;52.078;8.414;2023-04-26T03:04:49;100292.91;;;18.76;48.92
56514;BME280;62152;52.078;8.414;2023-04-26T03:08:50;100294.06;;;18.75;48.38
56514;BME280;62152;52.078;8.414;2023-04-26T03:12:51;100284.25;;;18.74;48.58
56514;BME280;62152;52.078;8.414;2023-04-26T03:16:53;100285.84;;;18.75;49.01
56514;BME280;62152;52.078;8.414;2023-04-26T03:20:54;100284.25;;;18.74;49.14
56514;BME280;62152;52.078;8.414;2023-04-26T03:24:55;100281.50;;;18.74;48.88
56514;BME280;62152;52.078;8.414;2023-04-26T03:28:56;100278.75;;;18.74;49.29
56514;BME280;62152;52.078;8.414;2023-04-26T03:32:59;100279.91;;;18.73;49.18
56514;BME280;62152;52.078;8.414;2023-04-26T03:37:00;100282.63;;;18.73;48.98
56514;BME280;62152;52.078;8.414;2023-04-26T03:41:03;100279.91;;;18.73;48.98
56514;BME280;62152;52.078;8.414;2023-04-26T03:45:05;100278.31;;;18.72;48.76
56514;BME280;62152;52.078;8.414;2023-04-26T03:49:08;100277.16;;;18.73;48.72
56514;BME280;62152;52.078;8.414;2023-04-26T03:53:09;100272.81;;;18.72;48.85
56514;BME280;62152;52.078;8.414;2023-04-26T03:57:10;100269.28;;;18.72;49.01
56514;BME280;62152;52.078;8.414;2023-04-26T04:01:11;100276.72;;;18.71;48.80
56514;BME280;62152;52.078;8.414;2023-04-26T04:05:13;100279.41;;;18.45;47.77
56514;BME280;62152;52.078;8.414;2023-04-26T04:09:15;100282.19;;;17.83;47.25
56514;BME280;62152;52.078;8.414;2023-04-26T04:13:16;100278.72;;;18.28;47.37
56514;BME280;62152;52.078;8.414;2023-04-26T04:17:17;100274.47;;;18.54;46.98
56514;BME280;62152;52.078;8.414;2023-04-26T04:21:20;100278.78;;;18.78;46.90
56514;BME280;62152;52.078;8.414;2023-04-26T04:25:21;100272.47;;;18.74;46.97
56514;BME280;62152;52.078;8.414;2023-04-26T04:29:21;100280.28;;;18.72;46.82
56514;BME280;62152;52.078;8.414;2023-04-26T04:33:22;100280.28;;;18.72;46.43
56514;BME280;62152;52.078;8.414;2023-04-26T04:37:24;100285.75;;;18.72;46.31
56514;BME280;62152;52.078;8.414;2023-04-26T04:41:26;100281.06;;;18.72;46.82
56514;BME280;62152;52.078;8.414;2023-04-26T04:45:27;100294.78;;;18.72;46.95
56514;BME280;62152;52.078;8.414;2023-04-26T04:49:29;100288.13;;;18.73;46.80
56514;BME280;62152;52.078;8.414;2023-04-26T04:53:33;100284.59;;;18.73;46.53
56514;BME280;62152;52.078;8.414;2023-04-26T04:57:34;100284.25;;;18.74;46.77
56514;BME280;62152;52.078;8.414;2023-04-26T05:01:34;100292.91;;;18.76;47.00
56514;BME280;62152;52.078;8.414;2023-04-26T05:05:39;100291.31;;;18.75;47.41
56514;BME280;62152;52.078;8.414;2023-04-26T05:09:42;100296.81;;;18.75;47.34
56514;BME280;62152;52.078;8.414;2023-04-26T05:13:43;100300.00;;;18.77;46.78
56514;BME280;62152;52.078;8.414;2023-04-26T05:17:44;100300.00;;;18.77;47.03
56514;BME280;62152;52.078;8.414;2023-04-26T05:21:50;100303.53;;;18.78;47.12
56514;BME280;62152;52.078;8.414;2023-04-26T05:25:53;100305.47;;;18.77;47.41
56514;BME280;62152;52.078;8.414;2023-04-26T05:30:16;100303.53;;;18.78;47.51
56514;BME280;62152;52.078;8.414;2023-04-26T05:34:25;100306.69;;;18.80;47.01
56514;BME280;62152;52.078;8.414;2023-04-26T05:38:30;100306.34;;;18.81;47.02
56514;BME280;62152;52.078;8.414;2023-04-26T05:42:32;100311.84;;;18.81;47.08
56514;BME280;62152;52.078;8.414;2023-04-26T05:46:33;100323.25;;;18.83;47.36
56514;BME280;62152;52.078;8.414;2023-04-26T05:50:33;100320.50;;;18.83;47.36
56514;BME280;62152;52.078;8.414;2023-04-26T05:54:34;100327.59;;;18.84;46.98
56514;BME280;62152;52.078;8.414;2023-04-26T05:58:37;100322.09;;;18.84;47.68
56514;BME280;62152;52.078;8.414;2023-04-26T06:02:38;100329.16;;;18.85;47.29
56514;BME280;62152;52.078;8.414;2023-04-26T06:06:39;100328.00;;;18.86;47.13
56514;BME280;62152;52.078;8.414;2023-04-26T06:10:40;100324.84;;;18.84;47.54
56514;BME280;62152;52.078;8.414;2023-04-26T06:14:42;100327.59;;;18.84;47.65
56514;BME280;62152;52.078;8.414;2023-04-26T06:18:48;100333.50;;;18.86;47.72
56514;BME280;62152;52.078;8.414;2023-04-26T06:22:48;100343.34;;;18.88;48.10
56514;BME280;62152;52.078;8.414;2023-04-26T06:26:49;100340.94;;;18.86;48.12
56514;BME280;62152;52.078;8.414;2023-04-26T06:30:51;100344.16;;;18.88;48.24
56514;BME280;62152;52.078;8.414;2023-04-26T06:34:52;100355.13;;;18.88;47.99
56514;BME280;62152;52.078;8.414;2023-04-26T06:38:53;100353.97;;;18.89;48.32
56514;BME280;62152;52.078;8.414;2023-04-26T06:42:53;100357.09;;;18.88;47.93
56514;BME280;62152;52.078;8.414;2023-04-26T06:47:07;100357.50;;;18.90;48.23
56514;BME280;62152;52.078;8.414;2023-04-26T06:51:08;100355.13;;;18.88;48.25
56514;BME280;62152;52.078;8.414;2023-04-26T06:55:09;100360.25;;;18.90;47.75
56514;BME280;62152;52.078;8.414;2023-04-26T06:59:10;100363.00;;;18.90;48.23
56514;BME280;62152;52.078;8.414;2023-04-26T07:03:12;100361.84;;;18.91;48.38
56514;BME280;62152;52.078;8.414;2023-04-26T07:07:13;100367.34;;;18.91;48.26
56514;BME280;62152;52.078;8.414;2023-04-26T07:11:13;100365.38;;;18.91;47.86
56514;BME280;62152;52.078;8.414;2023-04-26T07:15:14;100368.91;;;18.92;47.99
56514;BME280;62152;52.078;8.414;2023-04-26T07:19:16;100377.16;;;18.92;48.45
56514;BME280;62152;52.078;8.414;2023-04-26T07:23:17;100375.59;;;18.91;48.32
56514;BME280;62152;52.078;8.414;2023-04-26T07:27:18;100378.75;;;18.93;47.88
56514;BME280;62152;52.078;8.414;2023-04-26T07:31:18;100369.34;;;18.94;48.02
56514;BME280;62152;52.078;8.414;2023-04-26T07:35:20;100372.09;;;18.94;47.76
56514;BME280;62152;52.078;8.414;2023-04-26T07:39:21;100373.69;;;18.95;48.08
56514;BME280;62152;52.078;8.414;2023-04-26T07:43:22;100376.44;;;18.95;48.08
56514;BME280;62152;52.078;8.414;2023-04-26T07:47:22;100375.28;;;18.96;48.06
56514;BME280;62152;52.078;8.414;2023-04-26T07:51:24;100378.03;;;18.96;48.09
56514;BME280;62152;52.078;8.414;2023-04-26T07:55:26;100371.75;;;18.95;47.81
56514;BME280;62152;52.078;8.414;2023-04-26T07:59:27;100375.28;;;18.96;48.22
56514;BME280;62152;52.078;8.414;2023-04-26T08:03:27;100365.88;;;18.97;47.76
56514;BME280;62152;52.078;8.414;2023-04-26T08:07:29;100371.00;;;18.98;47.85
56514;BME280;62152;52.078;8.414;2023-04-26T08:11:30;100376.13;;;19.00;47.80
56514;BME280;62152;52.078;8.414;2023-04-26T08:15:31;100363.97;;;19.01;47.71
56514;BME280;62152;52.078;8.414;2023-04-26T08:19:32;100371.41;;;19.00;47.90
56514;BME280;62152;52.078;8.414;2023-04-26T08:23:34;100378.88;;;19.00;48.26
56514;BME280;62152;52.078;8.414;2023-04-26T08:27:35;100370.63;;;19.00;48.25
56514;BME280;62152;52.078;8.414;2023-04-26T08:31:35;100370.63;;;19.00;47.65
56514;BME280;62152;52.078;8.414;2023-04-26T08:35:36;100373.38;;;19.00;48.09
56514;BME280;62152;52.078;8.414;2023-04-26T08:39:38;100362.75;;;18.98;47.76
56514;BME280;62152;52.078;8.414;2023-04-26T08:43:39;100369.81;;;18.99;47.99
56514;BME280;62152;52.078;8.414;2023-04-26T08:47:43;100372.94;;;18.98;48.17
56514;BME280;62152;52.078;8.414;2023-04-26T08:51:46;100366.28;;;18.99;47.71
56514;BME280;62152;52.078;8.414;2023-04-26T08:55:49;100373.75;;;18.98;47.81
56514;BME280;62152;52.078;8.414;2023-04-26T08:59:50;100369.03;;;18.99;47.81
56514;BME280;62152;52.078;8.414;2023-04-26T09:03:51;100363.53;;;18.99;47.46
56514;BME280;62152;52.078;8.414;2023-04-26T09:07:55;100369.91;;;19.03;47.94
56514;BME280;62152;52.078;8.414;2023-04-26T09:11:59;100367.53;;;19.01;47.97
56514;BME280;62152;52.078;8.414;2023-04-26T09:16:00;100366.00;;;19.04;47.66
56514;BME280;62152;52.078;8.414;2023-04-26T09:20:09;100364.03;;;19.04;48.14
56514;BME280;62152;52.078;8.414;2023-04-26T09:24:16;100370.31;;;19.05;47.98
56514;BME280;62152;52.078;8.414;2023-04-26T09:28:22;100374.94;;;19.01;47.72
56514;BME280;62152;52.078;8.414;2023-04-26T09:32:23;100378.06;;;18.99;47.78
56514;BME280;62152;52.078;8.414;2023-04-26T09:36:24;100388.28;;;18.99;47.62
56514;BME280;62152;52.078;8.414;2023-04-26T09:40:26;100393.78;;;18.99;47.99
56514;BME280;62152;52.078;8.414;2023-04-26T09:44:29;100387.13;;;19.00;48.25
56514;BME280;62152;52.078;8.414;2023-04-26T09:48:33;100384.38;;;19.00;48.00
56514;BME280;62152;52.078;8.414;2023-04-26T09:52:41;100390.66;;;19.00;48.13
56514;BME280;62152;52.078;8.414;2023-04-26T09:56:58;100395.34;;;19.00;47.51
56514;BME280;62152;52.078;8.414;2023-04-26T10:01:02;100402.03;;;18.99;47.75
56514;BME280;62152;52.078;8.414;2023-04-26T10:05:05;100398.47;;;18.98;47.96
56514;BME280;62152;52.078;8.414;2023-04-26T10:09:06;100391.03;;;18.99;47.61
56514;BME280;62152;52.078;8.414;2023-04-26T10:13:07;100393.41;;;19.00;47.58
56514;BME280;62152;52.078;8.414;2023-04-26T10:17:10;100386.41;;;19.03;47.46
56514;BME280;62152;52.078;8.414;2023-04-26T10:21:15;100389.94;;;19.03;47.68
56514;BME280;62152;52.078;8.414;2023-04-26T10:25:19;100385.22;;;19.04;47.73
56514;BME280;62152;52.078;8.414;2023-04-26T10:29:21;100384.47;;;19.07;47.72
56514;BME280;62152;52.078;8.414;2023-04-26T10:33:23;100381.72;;;19.07;47.87
56514;BME280;62152;52.078;8.414;2023-04-26T10:37:24;100370.31;;;19.05;47.83
56514;BME280;62152;52.078;8.414;2023-04-26T10:41:33;100366.38;;;19.02;47.51
56514;BME280;62152;52.078;8.414;2023-04-26T10:45:35;100362.38;;;19.00;47.56
56514;BME280;62152;52.078;8.414;2023-04-26T10:49:45;100360.00;;;18.98;48.04
56514;BME280;62152;52.078;8.414;2023-04-26T10:53:58;100363.53;;;18.99;47.50
56514;BME280;62152;52.078;8.414;2023-04-26T10:57:58;100365.13;;;19.00;47.70
56514;BME280;62152;52.078;8.414;2023-04-26T11:01:59;100359.28;;;19.01;47.67
56514;BME280;62152;52.078;8.414;2023-04-26T11:06:05;100361.28;;;19.04;48.18
56514;BME280;62152;52.078;8.414;2023-04-26T11:10:07;100359.69;;;19.03;48.24
56514;BME280;62152;52.078;8.414;2023-04-26T11:14:09;100362.44;;;19.03;47.65
56514;BME280;62152;52.078;8.414;2023-04-26T11:18:10;100360.13;;;19.05;47.39
56514;BME280;62152;52.078;8.414;2023-04-26T11:22:12;100354.63;;;19.05;48.12
56514;BME280;62152;52.078;8.414;2023-04-26T11:26:13;100356.56;;;19.05;47.49
56514;BME280;62152;52.078;8.414;2023-04-26T11:30:17;100355.78;;;19.04;48.07
56514;BME280;62152;52.078;8.414;2023-04-26T11:34:19;100357.00;;;19.07;47.50
56514;BME280;62152;52.078;8.414;2023-04-26T11:38:23;100355.03;;;19.07;47.90
56514;BME280;62152;52.078;8.414;2023-04-26T11:42:24;100364.91;;;19.08;47.96
56514;BME280;62152;52.078;8.414;2023-04-26T11:46:25;100366.47;;;19.09;47.96
56514;BME280;62152;52.078;8.414;2023-04-26T11:50:27;100365.31;;;19.10;47.62
56514;BME280;62152;52.078;8.414;2023-04-26T11:54:30;100361.41;;;19.11;48.05
56514;BME280;62152;52.078;8.414;2023-04-26T11:58:31;100363.34;;;19.11;47.18
56514;BME280;62152;52.078;8.414;2023-04-26T12:02:34;100365.72;;;19.12;47.48
56514;BME280;62152;52.078;8.414;2023-04-26T12:06:41;100362.97;;;19.12;47.95
56514;BME280;62152;52.078;8.414;2023-04-26T12:10:45;100367.25;;;19.10;47.63
56514;BME280;62152;52.078;8.414;2023-04-26T12:14:46;100369.22;;;19.09;47.60
56514;BME280;62152;52.078;8.414;2023-04-26T12:18:49;100371.19;;;19.09;47.93
56514;BME280;62152;52.078;8.414;2023-04-26T12:23:02;100375.88;;;19.08;47.58
56514;BME280;62152;52.078;8.414;2023-04-26T12:27:05;100377.03;;;19.07;47.41
56514;BME280;62152;52.078;8.414;2023-04-26T12:31:07;100372.34;;;19.08;48.01
56514;BME280;62152;52.078;8.414;2023-04-26T12:35:07;100374.28;;;19.07;47.86
56514;BME280;62152;52.078;8.414;2023-04-26T12:39:09;100368.78;;;19.07;47.42
56514;BME280;62152;52.078;8.414;2023-04-26T12:43:11;100378.97;;;19.07;48.25
56514;BME280;62152;52.078;8.414;2023-04-26T12:47:12;100370.75;;;19.07;48.11
56514;BME280;62152;52.078;8.414;2023-04-26T12:51:12;100371.53;;;19.07;47.49
56514;BME280;62152;52.078;8.414;2023-04-26T12:55:14;100375.88;;;19.08;47.42
56514;BME280;62152;52.078;8.414;2023-04-26T12:59:17;100371.97;;;19.09;48.02
56514;BME280;62152;52.078;8.414;2023-04-26T13:03:17;100373.56;;;19.10;48.07
56514;BME280;62152;52.078;8.414;2023-04-26T13:07:18;100376.72;;;19.12;47.95
56514;BME280;62152;52.078;8.414;2023-04-26T13:11:19;100363.75;;;19.13;47.78
56514;BME280;62152;52.078;8.414;2023-04-26T13:15:21;100370.50;;;19.16;47.92
56514;BME280;62152;52.078;8.414;2023-04-26T13:19:22;100363.84;;;19.17;47.61
56514;BME280;62152;52.078;8.414;2023-04-26T13:23:22;100361.88;;;19.17;47.78
56514;BME280;62152;52.078;8.414;2023-04-26T13:27:23;100357.53;;;19.16;47.72
56514;BME280;62152;52.078;8.414;2023-04-26T13:31:25;100352.47;;;19.18;47.48
56514;BME280;62152;52.078;8.414;2023-04-26T13:35:26;100367.00;;;19.19;47.42
56514;BME280;62152;52.078;8.414;2023-04-26T13:39:27;100354.78;;;19.16;47.87
56514;BME280;62152;52.078;8.414;2023-04-26T13:43:27;100358.72;;;19.15;47.52
56514;BME280;62152;52.078;8.414;2023-04-26T13:47:29;100358.72;;;19.15;47.60
56514;BME280;62152;52.078;8.414;2023-04-26T13:51:30;100361.09;;;19.17;47.51
56514;BME280;62152;52.078;8.414;2023-04-26T13:55:31;100372.13;;;19.20;47.23
56514;BME280;62152;52.078;8.414;2023-04-26T13:59:32;100362.28;;;19.19;47.56
56514;BME280;62152;52.078;8.414;2023-04-26T14:03:34;100367.41;;;19.21;47.21
56514;BME280;62152;52.078;8.414;2023-04-26T14:07:35;100363.47;;;19.18;47.28
56514;BME280;62152;52.078;8.414;2023-04-26T14:11:35;100368.16;;;19.18;47.96
56514;BME280;62152;52.078;8.414;2023-04-26T14:15:36;100375.22;;;19.15;48.07
56514;BME280;62152;52.078;8.414;2023-04-26T14:19:38;100367.31;;;19.13;47.36
56514;BME280;62152;52.078;8.414;2023-04-26T14:23:39;100368.47;;;19.12;48.10
56514;BME280;62152;52.078;8.414;2023-04-26T14:27:40;100368.84;;;19.11;47.98
56514;BME280;62152;52.078;8.414;2023-04-26T14:31:40;100368.44;;;19.09;47.81
56514;BME280;62152;52.078;8.414;2023-04-26T14:35:42;100377.47;;;19.09;47.69
56514;BME280;62152;52.078;8.414;2023-04-26T14:39:43;100371.19;;;19.09;48.09
56514;BME280;62152;52.078;8.414;2023-04-26T14:43:45;100370.00;;;19.10;47.89
56514;BME280;62152;52.078;8.414;2023-04-26T14:47:46;100367.75;;;18.93;43.73
56514;BME280;62152;52.078;8.414;2023-04-26T14:51:48;100365.41;;;18.49;44.75
56514;BME280;62152;52.078;8.414;2023-04-26T14:55:53;100372.28;;;18.81;45.41
56514;BME280;62152;52.078;8.414;2023-04-26T14:59:54;100368.25;;;18.98;45.05
56514;BME280;62152;52.078;8.414;2023-04-26T15:03:55;100355.38;;;19.02;43.98
56514;BME280;62152;52.078;8.414;2023-04-26T15:07:57;100360.19;;;19.09;44.00
56514;BME280;62152;52.078;8.414;2023-04-26T15:11:57;100354.34;;;19.14;44.51
56514;BME280;62152;52.078;8.414;2023-04-26T15:16:01;100361.56;;;19.22;43.81
56514;BME280;62152;52.078;8.414;2023-04-26T15:20:02;100357.16;;;19.18;44.49
56514;BME280;62152;52.078;8.414;2023-04-26T15:24:05;100351.59;;;19.14;44.65
56514;BME280;62152;52.078;8.414;2023-04-26T15:28:06;100358.25;;;19.13;44.87
56514;BME280;62152;52.078;8.414;2023-04-26T15:32:08;100356.75;;;19.16;44.84
56514;BME280;62152;52.078;8.414;2023-04-26T15:36:09;100368.16;;;19.18;44.39
56514;BME280;62152;52.078;8.414;2023-04-26T15:40:11;100357.69;;;19.27;44.38
56514;BME280;62152;52.078;8.414;2023-04-26T15:44:12;100356.28;;;19.36;43.62
56514;BME280;62152;52.078;8.414;2023-04-26T15:48:13;100361.31;;;19.31;41.41
56514;BME280;62152;52.078;8.414;2023-04-26T15:52:13;100361.00;;;19.13;44.08
56514;BME280;62152;52.078;8.414;2023-04-26T15:56:16;100354.78;;;19.16;43.88
56514;BME280;62152;52.078;8.414;2023-04-26T16:00:17;100365.84;;;19.20;43.95
56514;BME280;62152;52.078;8.414;2023-04-26T16:04:18;100362.72;;;19.21;42.25
56514;BME280;62152;52.078;8.414;2023-04-26T16:08:19;100358.13;;;19.02;44.50
56514;BME280;62152;52.078;8.414;2023-04-26T16:12:21;100355.53;;;19.13;43.30
56514;BME280;62152;52.078;8.414;2023-04-26T16:16:21;100344.72;;;19.27;41.10
56514;BME280;62152;52.078;8.414;2023-04-26T16:20:22;100347.50;;;19.27;41.83
56514;BME280;62152;52.078;8.414;2023-04-26T16:24:23;100352.47;;;19.45;41.58
56514;BME280;62152;52.078;8.414;2023-04-26T16:28:25;100337.72;;;19.30;42.17
56514;BME280;62152;52.078;8.414;2023-04-26T16:32:26;100351.00;;;19.24;42.54
56514;BME280;62152;52.078;8.414;2023-04-26T16:36:26;100346.97;;;19.18;42.75
56514;BME280;62152;52.078;8.414;2023-04-26T16:40:27;100348.13;;;19.17;42.92
56514;BME280;62152;52.078;8.414;2023-04-26T16:44:30;100348.44;;;19.12;43.31
56514;BME280;62152;52.078;8.414;2023-04-26T16:48:32;100349.19;;;19.09;43.19
56514;BME280;62152;52.078;8.414;2023-04-26T16:52:33;100343.63;;;19.05;43.63
56514;BME280;62152;52.078;8.414;2023-04-26T16:56:34;100351.44;;;19.03;43.48
56514;BME280;62152;52.078;8.414;2023-04-26T17:00:36;100354.69;;;19.09;44.01
56514;BME280;62152;52.078;8.414;2023-04-26T17:04:37;100357.97;;;19.18;43.81
56514;BME280;62152;52.078;8.414;2023-04-26T17:08:37;100360.78;;;19.22;44.19
56514;BME280;62152;52.078;8.414;2023-04-26T17:12:38;100363.53;;;19.22;44.54
56514;BME280;62152;52.078;8.414;2023-04-26T17:16:40;100367.50;;;19.24;44.58
56514;BME280;62152;52.078;8.414;2023-04-26T17:20:41;100370.66;;;19.26;44.49
56514;BME280;62152;52.078;8.414;2023-04-26T17:24:41;100372.34;;;19.34;45.26
56514;BME280;62152;52.078;8.414;2023-04-26T17:28:42;100375.53;;;19.36;45.10
56514;BME280;62152;52.078;8.414;2023-04-26T17:32:44;100367.97;;;19.30;45.21
56514;BME280;62152;52.078;8.414;2023-04-26T17:36:45;100372.22;;;19.27;45.41
56514;BME280;62152;52.078;8.414;2023-04-26T17:40:50;100376.47;;;19.21;45.26
56514;BME280;62152;52.078;8.414;2023-04-26T17:44:51;100373.28;;;19.19;45.14
56514;BME280;62152;52.078;8.414;2023-04-26T17:48:53;100375.22;;;19.15;45.27
56514;BME280;62152;52.078;8.414;2023-04-26T17:52:54;100378.31;;;19.13;45.73
56514;BME280;62152;52.078;8.414;2023-04-26T17:56:54;100383.00;;;19.13;45.79
56514;BME280;62152;52.078;8.414;2023-04-26T18:00:55;100388.13;;;19.14;45.85
56514;BME280;62152;52.078;8.414;2023-04-26T18:04:57;100386.13;;;19.11;45.78
56514;BME280;62152;52.078;8.414;2023-04-26T18:08:58;100392.44;;;19.12;45.60
56514;BME280;62152;52.078;8.414;2023-04-26T18:12:59;100385.72;;;19.09;46.17
56514;BME280;62152;52.078;8.414;2023-04-26T18:16:59;100392.50;;;19.16;46.07
56514;BME280;62152;52.078;8.414;2023-04-26T18:21:01;100390.97;;;19.18;46.11
56514;BME280;62152;52.078;8.414;2023-04-26T18:25:02;100394.50;;;19.19;46.19
56514;BME280;62152;52.078;8.414;2023-04-26T18:29:03;100394.91;;;19.21;45.75
56514;BME280;62152;52.078;8.414;2023-04-26T18:33:04;100401.22;;;19.21;45.92
56514;BME280;62152;52.078;8.414;2023-04-26T18:37:06;100401.22;;;19.21;46.62
56514;BME280;62152;52.078;8.414;2023-04-26T18:41:06;100396.53;;;19.22;46.25
56514;BME280;62152;52.078;8.414;2023-04-26T18:45:08;100394.97;;;19.24;46.07
56514;BME280;62152;52.078;8.414;2023-04-26T18:49:09;100400.09;;;19.26;45.99
56514;BME280;62152;52.078;8.414;2023-04-26T18:53:11;100404.03;;;19.25;46.54
56514;BME280;62152;52.078;8.414;2023-04-26T18:57:11;100409.53;;;19.25;46.11
56514;BME280;62152;52.078;8.414;2023-04-26T19:01:12;100409.53;;;19.25;46.13
56514;BME280;62152;52.078;8.414;2023-04-26T19:05:13;100407.56;;;19.25;47.00
56514;BME280;62152;52.078;8.414;2023-04-26T19:09:16;100406.41;;;19.26;46.70
56514;BME280;62152;52.078;8.414;2023-04-26T19:13:16;100411.19;;;19.29;46.90
56514;BME280;62152;52.078;8.414;2023-04-26T19:17:17;100419.44;;;19.29;46.91
56514;BME280;62152;52.078;8.414;2023-04-26T19:21:18;100426.56;;;19.34;46.65
56514;BME280;62152;52.078;8.414;2023-04-26T19:25:21;100431.22;;;19.30;47.06
56514;BME280;62152;52.078;8.414;2023-04-26T19:29:22;100438.31;;;19.31;46.68
56514;BME280;62152;52.078;8.414;2023-04-26T19:33:23;100443.00;;;19.30;46.83
56514;BME280;62152;52.078;8.414;2023-04-26T19:37:24;100440.19;;;19.27;46.54
56514;BME280;62152;52.078;8.414;2023-04-26T19:41:26;100439.41;;;19.26;46.88
56514;BME280;62152;52.078;8.414;2023-04-26T19:45:27;100439.03;;;19.28;46.10
56514;BME280;62152;52.078;8.414;2023-04-26T19:49:28;100440.19;;;19.27;46.02
56514;BME280;62152;52.078;8.414;2023-04-26T19:53:29;100444.53;;;19.28;46.55
56514;BME280;62152;52.078;8.414;2023-04-26T19:57:31;100441.44;;;19.29;46.44
56514;BME280;62152;52.078;8.414;2023-04-26T20:01:31;100449.22;;;19.27;46.54
56514;BME280;62152;52.078;8.414;2023-04-26T20:05:32;100445.31;;;19.28;46.24
56514;BME280;62152;52.078;8.414;2023-04-26T20:09:34;100440.19;;;19.27;46.30
56514;BME280;62152;52.078;8.414;2023-04-26T20:13:36;100444.53;;;19.28;46.33
56514;BME280;62152;52.078;8.414;2023-04-26T20:17:37;100445.31;;;19.28;45.84
56514;BME280;62152;52.078;8.414;2023-04-26T20:21:38;100451.97;;;19.27;46.30
56514;BME280;62152;52.078;8.414;2023-04-26T20:25:38;100450.81;;;19.28;45.86
56514;BME280;62152;52.078;8.414;2023-04-26T20:29:40;100449.69;;;19.29;46.23
56514;BME280;62152;52.078;8.414;2023-04-26T20:33:42;100448.44;;;19.27;45.80
56514;BME280;62152;52.078;8.414;2023-04-26T20:37:43;100450.69;;;19.21;46.49
56514;BME280;62152;52.078;8.414;2023-04-26T20:41:43;100449.91;;;19.21;45.83
56514;BME280;62152;52.078;8.414;2023-04-26T20:45:45;100449.88;;;19.17;46.26
56514;BME280;62152;52.078;8.414;2023-04-26T20:49:46;100453.00;;;19.16;45.87
56514;BME280;62152;52.078;8.414;2023-04-26T20:53:47;100449.78;;;19.13;45.84
56514;BME280;62152;52.078;8.414;2023-04-26T20:57:47;100460.00;;;19.13;45.56
56514;BME280;62152;52.078;8.414;2023-04-26T21:01:49;100461.16;;;19.12;46.08
56514;BME280;62152;52.078;8.414;2023-04-26T21:05:50;100451.69;;;19.09;45.71